Time;durP1;ratioP1;P1;durP2;ratioP2;P2;SDS_P1;SDS_P2;PMS_P1;PMS_P2;Temp;Humidity;BMP_temperature;BMP_pressure;BME280_temperature;BME280_humidity;BME280_pressure;Samples;Min_cycle;Max_cycle;Signal;HPM_P1;HPM_P2
2022/05/07 00:01:03;;;;;;;0.98;0.98;;;17.00;58.90;;;;;;5007651;28;20252;-60
2022/05/07 00:03:36;;;;;;;2.90;1.80;;;17.00;58.90;;;;;;5007276;28;20218;-57
2022/05/07 00:06:07;;;;;;;5.95;2.10;;;17.00;59.20;;;;;;5006310;28;20221;-57
2022/05/07 00:08:37;;;;;;;3.47;2.08;;;17.10;59.70;;;;;;5006422;28;20225;-55
2022/05/07 00:11:08;;;;;;;10.32;3.88;;;17.10;60.80;;;;;;5008449;28;20197;-58
2022/05/07 00:13:38;;;;;;;8.10;4.03;;;17.10;60.90;;;;;;5010623;28;20228;-56
2022/05/07 00:18:57;;;;;;;8.15;3.40;;;17.20;62.20;;;;;;5010914;28;20346;-56
2022/05/07 00:21:28;;;;;;;6.05;3.58;;;17.30;62.40;;;;;;5005027;28;20194;-56
2022/05/07 00:23:59;;;;;;;7.85;3.30;;;17.40;62.70;;;;;;4994952;28;20251;-56
2022/05/07 00:26:29;;;;;;;8.65;3.55;;;17.40;62.90;;;;;;4994177;28;20202;-57
2022/05/07 00:29:00;;;;;;;6.93;3.63;;;17.50;62.80;;;;;;4993250;28;20252;-57
2022/05/07 00:31:30;;;;;;;6.60;3.58;;;17.60;62.70;;;;;;4993276;28;20567;-56
2022/05/07 00:34:03;;;;;;;6.85;3.20;;;17.60;62.40;;;;;;4993300;28;20304;-57
2022/05/07 00:36:33;;;;;;;8.10;3.15;;;17.70;62.30;;;;;;4993026;28;20189;-59
2022/05/07 00:39:04;;;;;;;6.97;3.25;;;17.70;62.10;;;;;;4993199;28;20201;-57
2022/05/07 00:41:34;;;;;;;5.00;3.00;;;17.70;61.90;;;;;;4995640;28;20198;-57
2022/05/07 00:44:20;;;;;;;5.03;3.13;;;17.80;61.80;;;;;;4993213;28;20252;-57
2022/05/07 00:47:06;;;;;;;6.22;3.38;;;17.80;61.70;;;;;;4992230;28;20237;-57
2022/05/07 00:49:42;;;;;;;5.90;3.28;;;17.80;61.50;;;;;;4991520;28;20205;-59
2022/05/07 00:52:12;;;;;;;5.82;3.05;;;17.90;61.50;;;;;;4992799;28;20657;-59
2022/05/07 00:54:42;;;;;;;6.65;2.88;;;17.90;61.30;;;;;;4993178;28;20193;-58
2022/05/07 00:57:14;;;;;;;6.72;3.28;;;17.90;61.10;;;;;;4993272;28;20249;-59
2022/05/07 00:59:47;;;;;;;4.60;2.78;;;18.00;61.00;;;;;;4993301;28;20193;-57
2022/05/07 01:02:17;;;;;;;5.57;3.10;;;18.00;60.90;;;;;;4992982;28;20260;-57
2022/05/07 01:04:50;;;;;;;6.40;3.30;;;18.10;60.90;;;;;;4993181;28;20610;-57
2022/05/07 01:07:20;;;;;;;6.75;3.30;;;18.10;60.80;;;;;;4992916;28;20224;-57
2022/05/07 01:09:51;;;;;;;4.50;2.83;;;18.10;60.70;;;;;;4992822;28;20202;-57
2022/05/07 01:12:23;;;;;;;5.32;3.20;;;18.10;60.70;;;;;;4992363;28;20253;-57
2022/05/07 01:14:54;;;;;;;4.85;2.92;;;18.20;60.70;;;;;;4992876;28;20300;-57
2022/05/07 01:17:24;;;;;;;7.05;3.33;;;18.20;60.70;;;;;;4992933;28;20239;-57
2022/05/07 01:19:57;;;;;;;6.00;3.42;;;18.20;61.50;;;;;;4992450;28;20194;-57
2022/05/07 01:22:32;;;;;;;6.00;3.22;;;18.20;60.60;;;;;;4991371;28;20194;-57
2022/05/07 01:25:03;;;;;;;4.38;2.88;;;18.20;60.60;;;;;;4992443;28;20197;-57
2022/05/07 01:27:34;;;;;;;5.70;3.08;;;18.30;60.60;;;;;;4992459;28;20213;-57
2022/05/07 01:30:04;;;;;;;4.20;3.10;;;18.30;60.50;;;;;;4992380;28;20197;-57
2022/05/07 01:32:35;;;;;;;4.97;2.70;;;18.30;60.50;;;;;;4992309;28;20261;-57
2022/05/07 01:35:06;;;;;;;4.57;3.28;;;18.30;60.50;;;;;;4992464;28;20202;-57
2022/05/07 01:37:38;;;;;;;4.60;3.40;;;18.40;60.50;;;;;;4992221;28;20635;-58
2022/05/07 01:40:11;;;;;;;3.47;2.88;;;18.40;60.50;;;;;;4992234;28;20205;-57
2022/05/07 01:42:41;;;;;;;4.72;3.30;;;18.40;60.50;;;;;;4992280;28;20220;-58
2022/05/07 01:45:12;;;;;;;4.63;3.35;;;18.40;60.30;;;;;;4992552;28;20298;-57
2022/05/07 01:50:29;;;;;;;4.25;2.90;;;18.40;60.20;;;;;;4992459;28;20196;-57
2022/05/07 01:53:02;;;;;;;3.55;2.70;;;18.50;60.10;;;;;;4992058;28;20705;-57
2022/05/07 01:55:33;;;;;;;4.13;2.67;;;18.50;60.10;;;;;;4992189;28;20202;-57
2022/05/07 01:58:04;;;;;;;3.65;2.70;;;18.50;60.00;;;;;;4991856;28;20217;-57
2022/05/07 02:00:36;;;;;;;3.25;2.95;;;18.50;60.00;;;;;;4991860;28;20201;-57
2022/05/07 02:03:06;;;;;;;5.50;2.92;;;18.50;60.00;;;;;;4992041;28;20267;-57
2022/05/07 02:05:37;;;;;;;3.58;2.78;;;18.50;60.70;;;;;;4991370;28;20201;-57
2022/05/07 02:08:10;;;;;;;4.95;2.72;;;18.60;60.00;;;;;;4991717;28;20447;-57
2022/05/07 02:10:40;;;;;;;5.32;2.88;;;18.60;60.00;;;;;;4991794;28;20225;-57
2022/05/07 02:13:11;;;;;;;3.95;2.95;;;18.60;59.90;;;;;;4991966;28;20284;-57
2022/05/07 02:15:41;;;;;;;4.18;3.03;;;18.60;59.90;;;;;;4991857;28;20264;-57
2022/05/07 02:18:12;;;;;;;4.45;2.92;;;18.70;59.90;;;;;;4991729;28;20320;-58
2022/05/07 02:20:42;;;;;;;3.00;2.70;;;18.60;59.90;;;;;;4991512;28;20197;-58
2022/05/07 02:23:15;;;;;;;3.42;2.70;;;18.60;59.90;;;;;;4990449;28;20193;-57
2022/05/07 02:25:45;;;;;;;3.53;2.85;;;18.70;59.90;;;;;;4991316;28;20201;-57
2022/05/07 02:28:17;;;;;;;3.88;2.58;;;18.70;59.90;;;;;;4991897;28;20210;-57
2022/05/07 02:30:47;;;;;;;4.32;2.95;;;18.70;59.80;;;;;;4991598;28;20201;-57
2022/05/07 02:33:19;;;;;;;4.90;2.65;;;18.70;59.80;;;;;;4991265;28;20229;-57
2022/05/07 02:35:49;;;;;;;3.40;2.53;;;18.70;59.80;;;;;;4993345;28;20194;-58
2022/05/07 02:38:22;;;;;;;4.32;3.03;;;18.80;59.80;;;;;;4990716;28;20217;-58
2022/05/07 02:43:39;;;;;;;5.03;2.65;;;18.80;59.80;;;;;;4991197;28;20204;-57
2022/05/07 02:46:10;;;;;;;4.75;2.95;;;18.80;59.80;;;;;;4991310;28;20598;-58
2022/05/07 02:48:44;;;;;;;4.20;3.00;;;18.80;59.70;;;;;;4991641;28;20229;-58
2022/05/07 02:51:15;;;;;;;4.65;2.85;;;18.90;59.70;;;;;;4990964;28;20200;-57
2022/05/07 02:54:00;;;;;;;3.67;2.60;;;18.90;59.80;;;;;;4990024;28;20693;-57
2022/05/07 02:56:31;;;;;;;2.97;2.60;;;18.90;59.70;;;;;;4990432;28;20206;-57
2022/05/07 02:59:01;;;;;;;4.10;3.35;;;18.90;59.60;;;;;;4990911;28;20201;-57
2022/05/07 03:01:32;;;;;;;3.67;2.92;;;19.00;59.60;;;;;;4990687;28;20193;-57
2022/05/07 03:04:02;;;;;;;3.60;2.55;;;19.00;59.80;;;;;;4990781;28;20229;-57
2022/05/07 03:06:33;;;;;;;4.25;2.90;;;19.00;59.60;;;;;;4990943;28;20197;-57
2022/05/07 03:09:06;;;;;;;5.53;2.92;;;19.00;59.60;;;;;;4990574;28;20197;-57
2022/05/07 03:11:37;;;;;;;3.10;2.67;;;19.00;59.60;;;;;;4990571;28;20193;-59
2022/05/07 03:14:07;;;;;;;3.15;2.78;;;19.10;59.60;;;;;;4990235;28;21076;-57
2022/05/07 03:16:38;;;;;;;4.88;2.65;;;19.10;59.60;;;;;;4990431;28;20200;-59
2022/05/07 03:19:09;;;;;;;2.65;2.40;;;19.20;60.30;;;;;;4990579;28;20201;-58
2022/05/07 03:21:39;;;;;;;3.17;2.65;;;19.20;59.70;;;;;;4990023;28;20240;-58
2022/05/07 03:24:12;;;;;;;3.72;2.67;;;19.20;59.60;;;;;;4990350;28;20225;-58
2022/05/07 03:26:42;;;;;;;2.50;2.30;;;19.20;59.60;;;;;;4990492;28;20198;-58
2022/05/07 03:29:13;;;;;;;2.60;2.30;;;19.30;59.60;;;;;;4990655;28;20581;-57
2022/05/07 03:31:47;;;;;;;3.70;2.67;;;19.30;59.60;;;;;;4990678;28;20657;-58
2022/05/07 03:34:17;;;;;;;3.60;2.90;;;19.30;59.50;;;;;;4990139;28;20229;-57
2022/05/07 03:36:48;;;;;;;3.58;3.05;;;19.40;59.40;;;;;;4990653;28;20622;-58
2022/05/07 03:39:45;;;;;;;4.57;2.17;;;19.40;59.40;;;;;;4990230;28;20198;-58
2022/05/07 03:42:15;;;;;;;4.10;2.75;;;19.40;59.30;;;;;;4989934;28;20197;-57
2022/05/07 03:44:46;;;;;;;5.55;2.60;;;19.40;59.30;;;;;;4991026;28;20198;-58
2022/05/07 03:47:16;;;;;;;3.10;2.33;;;19.50;59.30;;;;;;4997271;28;20233;-58
2022/05/07 03:49:47;;;;;;;3.50;2.58;;;19.50;59.20;;;;;;4996912;28;20233;-57
2022/05/07 03:55:06;;;;;;;3.13;2.60;;;19.60;59.20;;;;;;4977318;28;20590;-57
2022/05/07 03:57:36;;;;;;;3.55;2.92;;;19.60;59.20;;;;;;4977279;28;20214;-57
2022/05/07 04:00:08;;;;;;;3.20;2.88;;;19.60;59.20;;;;;;4981909;28;20197;-58
2022/05/07 04:02:38;;;;;;;3.38;2.60;;;19.60;59.10;;;;;;4996960;28;20209;-59
2022/05/07 04:05:09;;;;;;;3.00;2.70;;;19.60;59.10;;;;;;4996724;28;20263;-58
2022/05/07 04:07:40;;;;;;;2.85;2.55;;;19.70;59.20;;;;;;4995903;28;20246;-58
2022/05/07 04:10:12;;;;;;;3.35;2.63;;;19.70;59.10;;;;;;4977365;28;20610;-58
2022/05/07 04:12:51;;;;;;;3.10;2.45;;;19.70;59.10;;;;;;4976944;28;20253;-58
2022/05/07 04:15:41;;;;;;;2.83;2.15;;;19.80;59.10;;;;;;4977197;28;20281;-58
2022/05/07 04:18:12;;;;;;;2.75;2.50;;;19.80;59.00;;;;;;4977110;28;20582;-58
2022/05/07 04:20:43;;;;;;;2.90;2.45;;;19.80;59.50;;;;;;4982636;28;20249;-58
2022/05/07 04:23:14;;;;;;;2.92;2.55;;;19.80;58.90;;;;;;4982452;28;20279;-57
2022/05/07 04:25:46;;;;;;;2.65;2.45;;;19.80;58.80;;;;;;4996377;28;20193;-57
2022/05/07 04:28:17;;;;;;;2.70;2.50;;;19.80;58.70;;;;;;4996648;28;20217;-57
2022/05/07 04:30:47;;;;;;;2.85;2.30;;;19.90;58.70;;;;;;4997118;28;20712;-57
2022/05/07 04:33:19;;;;;;;4.13;3.40;;;19.90;58.60;;;;;;4998327;28;20193;-57
2022/05/07 04:35:50;;;;;;;5.28;4.47;;;19.90;58.90;;;;;;4996144;28;20197;-58
2022/05/07 04:38:20;;;;;;;4.47;3.85;;;19.90;59.90;;;;;;4999106;28;20297;-58
2022/05/07 04:40:53;;;;;;;4.20;3.47;;;19.90;59.40;;;;;;5012275;28;20621;-58
2022/05/07 04:43:23;;;;;;;3.80;3.50;;;19.90;59.30;;;;;;5010867;28;20667;-59
2022/05/07 04:45:54;;;;;;;4.95;4.00;;;19.90;59.30;;;;;;5008968;28;20224;-58
2022/05/07 04:48:24;;;;;;;4.63;3.33;;;20.00;59.30;;;;;;5014786;28;20249;-58
2022/05/07 04:50:55;;;;;;;4.65;3.40;;;20.00;59.30;;;;;;5013784;28;20225;-58
2022/05/07 04:53:25;;;;;;;3.40;3.10;;;20.00;59.30;;;;;;5013818;28;20661;-58
2022/05/07 04:55:57;;;;;;;4.05;3.35;;;20.00;59.20;;;;;;5013404;28;20746;-58
2022/05/07 04:58:39;;;;;;;4.70;3.90;;;20.00;59.20;;;;;;5009237;28;20689;-58
2022/05/07 05:01:10;;;;;;;4.22;3.47;;;20.00;59.10;;;;;;5010672;28;20204;-58
2022/05/07 05:03:40;;;;;;;4.20;3.80;;;20.00;59.00;;;;;;5009707;28;20294;-58
2022/05/07 05:06:11;;;;;;;4.03;3.63;;;20.00;59.00;;;;;;5010409;28;20267;-58
2022/05/07 05:08:57;;;;;;;5.07;3.80;;;20.00;59.00;;;;;;5009977;28;20382;-60
2022/05/07 05:11:46;;;;;;;4.22;3.45;;;20.00;59.00;;;;;;5011470;28;20193;-57
2022/05/07 05:17:05;;;;;;;4.15;3.47;;;20.00;58.90;;;;;;5009117;28;20731;-58
2022/05/07 05:19:36;;;;;;;4.20;3.55;;;20.00;58.90;;;;;;5010311;28;20221;-57
2022/05/07 05:22:07;;;;;;;4.05;3.55;;;19.90;58.80;;;;;;5009972;28;20204;-57
2022/05/07 05:24:43;;;;;;;4.35;3.25;;;20.00;58.80;;;;;;5010265;28;20262;-58
2022/05/07 05:27:16;;;;;;;5.32;3.97;;;19.90;58.80;;;;;;5009814;28;20223;-58
2022/05/07 05:29:46;;;;;;;3.47;3.13;;;19.90;58.80;;;;;;5008446;28;20196;-58
2022/05/07 05:32:19;;;;;;;4.45;3.75;;;19.90;58.80;;;;;;5008764;28;20248;-58
2022/05/07 05:37:47;;;;;;;4.88;3.90;;;19.90;58.80;;;;;;5006609;28;20225;-57
2022/05/07 05:40:17;;;;;;;4.18;3.40;;;19.90;58.70;;;;;;5009191;28;20207;-57
2022/05/07 05:42:50;;;;;;;3.50;3.20;;;19.90;58.70;;;;;;5009015;28;20243;-58
2022/05/07 05:45:20;;;;;;;3.63;3.30;;;19.90;58.80;;;;;;5008243;28;20244;-58
2022/05/07 05:48:17;;;;;;;;;;;;;;;;;;;;;
2022/05/07 05:51:04;;;;;;;4.10;3.70;;;19.90;58.70;;;;;;5007037;28;20205;-58
2022/05/07 05:53:35;;;;;;;3.92;3.53;;;19.90;58.70;;;;;;5009284;28;20296;-58
2022/05/07 05:56:05;;;;;;;3.90;3.50;;;19.90;58.70;;;;;;5005387;28;20229;-58
2022/05/07 05:58:38;;;;;;;4.15;3.50;;;19.80;58.60;;;;;;4993593;28;20217;-58
2022/05/07 06:01:08;;;;;;;4.55;3.53;;;19.80;58.60;;;;;;4993191;28;20198;-58
2022/05/07 06:03:39;;;;;;;4.00;3.40;;;19.80;58.60;;;;;;4992966;28;20225;-58
2022/05/07 06:06:10;;;;;;;5.97;3.65;;;19.80;58.60;;;;;;4993027;28;20243;-58
2022/05/07 06:08:42;;;;;;;3.60;3.28;;;19.80;58.60;;;;;;4992293;28;20213;-58
2022/05/07 06:11:12;;;;;;;3.50;2.97;;;19.80;58.60;;;;;;4993295;28;20235;-58
2022/05/07 06:13:47;;;;;;;3.97;3.58;;;19.80;58.60;;;;;;4993029;28;20205;-58
2022/05/07 06:16:18;;;;;;;3.72;3.35;;;19.80;58.60;;;;;;4993099;28;20203;-58
2022/05/07 06:18:48;;;;;;;3.83;3.17;;;19.80;58.60;;;;;;4992753;28;20228;-58
2022/05/07 06:21:19;;;;;;;4.03;3.20;;;19.70;58.50;;;;;;4994720;28;20254;-58
2022/05/07 06:23:50;;;;;;;4.32;3.38;;;19.70;58.50;;;;;;4973883;28;20203;-58
2022/05/07 06:29:08;;;;;;;3.55;3.25;;;19.70;58.50;;;;;;4973327;28;20304;-58
2022/05/07 06:31:39;;;;;;;3.67;3.35;;;19.70;58.50;;;;;;4973138;28;20277;-58
2022/05/07 06:34:17;;;;;;;3.78;2.92;;;19.70;58.50;;;;;;4973131;28;20362;-58
2022/05/07 06:36:48;;;;;;;3.80;3.45;;;19.70;58.50;;;;;;4972644;28;20201;-58
2022/05/07 06:39:37;;;;;;;3.88;3.47;;;19.70;58.50;;;;;;4985044;28;20626;-58
2022/05/07 06:42:08;;;;;;;3.67;3.22;;;19.60;58.50;;;;;;4990751;28;20222;-58
2022/05/07 06:44:41;;;;;;;3.83;3.42;;;19.60;58.50;;;;;;4992686;28;20245;-57
2022/05/07 06:47:11;;;;;;;3.38;3.08;;;19.60;58.50;;;;;;4993000;28;20226;-58
2022/05/07 06:49:43;;;;;;;3.60;3.20;;;19.70;58.70;;;;;;4992212;28;20225;-58
2022/05/07 06:52:14;;;;;;;3.33;2.92;;;19.60;58.70;;;;;;4992432;28;20202;-58
2022/05/07 06:54:44;;;;;;;3.72;3.28;;;19.60;58.70;;;;;;4992310;28;20232;-58
2022/05/07 06:57:15;;;;;;;3.50;3.20;;;19.60;58.70;;;;;;4991576;28;20217;-58
2022/05/07 06:59:47;;;;;;;3.33;2.90;;;19.60;58.70;;;;;;4992341;28;20204;-57
2022/05/07 07:02:18;;;;;;;3.70;3.20;;;19.60;58.70;;;;;;4991615;28;20229;-58
2022/05/07 07:04:48;;;;;;;3.92;3.20;;;19.60;58.80;;;;;;4991817;28;20201;-58
2022/05/07 07:07:24;;;;;;;3.47;3.17;;;19.60;58.80;;;;;;4992004;28;20218;-58
2022/05/07 07:09:55;;;;;;;3.05;2.75;;;19.60;58.90;;;;;;4992123;28;20613;-58
2022/05/07 07:12:26;;;;;;;3.80;3.20;;;19.60;58.90;;;;;;4991263;28;20198;-58
2022/05/07 07:15:17;;;;;;;4.15;3.00;;;19.60;58.90;;;;;;4991376;28;20697;-58
2022/05/07 07:17:50;;;;;;;3.42;2.92;;;19.60;58.90;;;;;;4991517;28;20221;-58
2022/05/07 07:20:21;;;;;;;3.75;3.15;;;19.60;58.90;;;;;;4990312;28;20208;-58
2022/05/07 07:22:51;;;;;;;4.20;3.47;;;19.60;58.90;;;;;;4990832;28;20197;-58
2022/05/07 07:25:22;;;;;;;3.33;3.00;;;19.60;58.90;;;;;;4991586;28;20723;-57
2022/05/07 07:27:52;;;;;;;4.50;3.10;;;19.60;58.90;;;;;;4991442;28;20283;-58
2022/05/07 07:30:25;;;;;;;3.92;2.88;;;19.50;58.90;;;;;;4992299;28;20198;-57
2022/05/07 07:33:12;;;;;;;3.50;2.92;;;19.50;58.90;;;;;;4991616;28;20284;-58
2022/05/07 07:35:43;;;;;;;5.35;3.08;;;19.50;59.00;;;;;;4990478;28;20248;-58
2022/05/07 07:38:13;;;;;;;3.45;3.15;;;19.60;59.00;;;;;;4990984;28;20243;-57
2022/05/07 07:40:50;;;;;;;3.28;2.97;;;19.50;59.00;;;;;;4991262;28;20197;-58
2022/05/07 07:43:21;;;;;;;3.10;2.78;;;19.50;59.00;;;;;;4991123;28;20256;-58
2022/05/07 07:49:01;;;;;;;3.53;2.63;;;19.50;59.00;;;;;;4991299;28;20308;-58
2022/05/07 07:51:31;;;;;;;3.17;2.88;;;19.50;59.00;;;;;;4972085;28;20198;-58
2022/05/07 07:54:08;;;;;;;3.13;2.45;;;19.50;59.00;;;;;;4972278;28;20202;-58
2022/05/07 07:56:38;;;;;;;3.53;3.03;;;19.50;59.00;;;;;;4986396;28;20552;-60
2022/05/07 07:59:09;;;;;;;4.43;2.75;;;19.50;59.00;;;;;;4991078;28;20217;-58
2022/05/07 08:01:42;;;;;;;2.65;2.45;;;19.50;59.50;;;;;;4981403;28;20293;-58
2022/05/07 08:04:13;;;;;;;4.10;2.85;;;19.50;59.00;;;;;;4971701;28;20289;-58
2022/05/07 08:06:44;;;;;;;3.03;2.75;;;19.40;59.00;;;;;;4972181;28;20249;-58
2022/05/07 08:12:07;;;;;;;3.40;2.85;;;19.40;59.00;;;;;;4972134;28;20197;-58
2022/05/07 08:14:38;;;;;;;3.10;2.72;;;19.50;59.00;;;;;;4972220;28;20248;-58
2022/05/07 08:17:10;;;;;;;3.33;3.03;;;19.40;59.00;;;;;;4971844;28;20266;-58
2022/05/07 08:19:40;;;;;;;3.05;2.75;;;19.40;59.00;;;;;;4976297;28;20201;-58
2022/05/07 08:22:11;;;;;;;4.22;2.50;;;19.40;59.00;;;;;;4990414;28;20202;-58
2022/05/07 08:24:42;;;;;;;4.45;2.55;;;19.40;59.00;;;;;;4990342;28;20284;-58
2022/05/07 08:27:12;;;;;;;3.35;3.00;;;19.40;59.10;;;;;;4990402;28;20228;-58
2022/05/07 08:29:43;;;;;;;3.17;2.65;;;19.40;59.00;;;;;;4990862;28;20674;-58
2022/05/07 08:32:15;;;;;;;2.85;2.33;;;19.40;59.00;;;;;;4995618;28;20256;-57
2022/05/07 08:34:46;;;;;;;2.20;1.95;;;19.40;59.00;;;;;;4994722;28;20272;-57
2022/05/07 08:37:16;;;;;;;2.45;2.25;;;19.40;59.40;;;;;;4994835;28;20222;-57
2022/05/07 08:39:47;;;;;;;3.75;2.50;;;19.40;59.50;;;;;;4994492;28;20201;-57
2022/05/07 08:42:18;;;;;;;3.15;2.17;;;19.40;59.40;;;;;;4994431;28;20201;-57
2022/05/07 08:44:48;;;;;;;2.40;2.20;;;19.40;59.30;;;;;;4994207;28;20209;-57
2022/05/07 08:47:23;;;;;;;2.30;2.10;;;19.40;59.30;;;;;;4994677;28;20221;-57
2022/05/07 08:49:54;;;;;;;3.55;2.42;;;19.40;59.40;;;;;;4994599;28;20204;-57
2022/05/07 08:52:25;;;;;;;2.47;2.28;;;19.40;59.20;;;;;;4994598;28;20224;-57
2022/05/07 08:54:57;;;;;;;2.45;2.15;;;19.40;59.10;;;;;;4994196;28;20315;-57
2022/05/07 08:57:28;;;;;;;2.50;2.22;;;19.40;59.10;;;;;;4993497;28;20217;-57
2022/05/07 08:59:59;;;;;;;2.35;1.90;;;19.30;59.00;;;;;;4994265;28;20578;-58
2022/05/07 09:02:38;;;;;;;2.55;2.35;;;19.30;59.00;;;;;;4994671;28;20197;-57
2022/05/07 09:05:09;;;;;;;2.47;2.28;;;19.30;59.00;;;;;;4994212;28;20263;-58
2022/05/07 09:07:41;;;;;;;3.00;2.20;;;19.30;58.90;;;;;;4993840;28;20213;-57
2022/05/07 09:10:14;;;;;;;2.17;1.92;;;19.30;58.90;;;;;;4994147;28;20288;-58
2022/05/07 09:12:44;;;;;;;2.30;2.08;;;19.30;58.90;;;;;;4993359;28;20202;-57
2022/05/07 09:15:15;;;;;;;2.35;2.15;;;19.30;58.90;;;;;;4992867;28;20303;-57
2022/05/07 09:17:49;;;;;;;2.45;1.98;;;19.20;58.80;;;;;;4994300;28;20253;-57
2022/05/07 09:20:21;;;;;;;2.33;1.90;;;19.20;58.80;;;;;;4994332;28;20232;-58
2022/05/07 09:22:53;;;;;;;2.70;2.10;;;19.20;58.80;;;;;;4994347;28;20205;-57
2022/05/07 09:25:24;;;;;;;2.72;2.15;;;19.20;58.80;;;;;;4994113;28;20693;-58
2022/05/07 09:27:56;;;;;;;2.00;1.80;;;19.20;58.80;;;;;;4993264;28;20272;-56
2022/05/07 09:30:27;;;;;;;2.97;1.73;;;19.20;58.90;;;;;;4993702;28;20197;-57
2022/05/07 09:33:00;;;;;;;4.10;1.70;;;19.20;59.30;;;;;;4993023;28;20192;-57
2022/05/07 09:35:50;;;;;;;2.55;1.90;;;19.20;59.80;;;;;;5009135;28;20220;-56
2022/05/07 09:38:26;;;;;;;1.75;1.58;;;19.20;59.80;;;;;;5009932;28;20221;-57
2022/05/07 09:40:57;;;;;;;2.17;1.65;;;19.20;59.80;;;;;;5010741;28;20282;-57
2022/05/07 09:43:29;;;;;;;2.53;1.67;;;19.20;59.60;;;;;;5008968;28;20266;-57
2022/05/07 09:45:59;;;;;;;2.10;1.50;;;19.20;59.50;;;;;;5009641;28;20291;-57
2022/05/07 09:48:34;;;;;;;1.95;1.67;;;19.20;59.50;;;;;;5009757;28;20229;-57
2022/05/07 09:51:05;;;;;;;2.55;1.80;;;19.20;59.40;;;;;;5008714;28;20200;-57
2022/05/07 09:59:09;;;;;;;3.30;1.70;;;19.20;59.30;;;;;;5009345;28;20299;-58
2022/05/07 10:01:51;;;;;;;1.83;1.73;;;19.20;59.20;;;;;;5009295;28;20279;-57
2022/05/07 10:04:55;;;;;;;3.03;2.10;;;19.20;59.20;;;;;;5009134;28;20660;-58
2022/05/07 10:07:48;;;;;;;1.88;1.42;;;19.20;59.20;;;;;;5006821;28;20274;-57
2022/05/07 10:10:27;;;;;;;2.00;1.60;;;19.20;59.10;;;;;;5009660;28;20194;-57
2022/05/07 10:12:59;;;;;;;5.60;1.70;;;19.20;59.10;;;;;;5010172;28;20549;-56
2022/05/07 10:15:30;;;;;;;1.58;1.48;;;19.20;59.00;;;;;;5009716;28;20249;-57
2022/05/07 10:18:06;;;;;;;4.40;1.60;;;19.10;59.00;;;;;;5008984;28;20213;-58
2022/05/07 10:20:45;;;;;;;1.67;1.55;;;19.10;58.90;;;;;;5008222;28;20196;-57
2022/05/07 10:23:16;;;;;;;1.85;1.50;;;19.10;58.90;;;;;;5008785;28;20197;-57
2022/05/07 10:26:01;;;;;;;1.88;1.58;;;19.10;58.90;;;;;;5009615;28;20248;-57
2022/05/07 10:28:41;;;;;;;1.65;1.48;;;19.10;58.90;;;;;;5007254;28;20219;-57
2022/05/07 10:31:23;;;;;;;2.10;1.88;;;19.10;58.80;;;;;;5009595;28;20205;-58
2022/05/07 10:33:55;;;;;;;2.25;1.67;;;19.10;58.80;;;;;;5008698;28;20231;-57
2022/05/07 10:36:37;;;;;;;1.92;1.70;;;19.10;58.80;;;;;;5009545;28;20797;-57
2022/05/07 10:39:11;;;;;;;1.77;1.50;;;19.10;58.80;;;;;;5009076;28;20591;-56
2022/05/07 10:41:49;;;;;;;3.17;1.58;;;19.00;58.70;;;;;;5007579;28;20228;-57
2022/05/07 10:44:32;;;;;;;2.30;1.60;;;19.00;58.70;;;;;;5008861;28;20193;-57
2022/05/07 10:47:13;;;;;;;2.65;1.50;;;19.00;58.70;;;;;;5008962;28;20470;-57
2022/05/07 10:49:56;;;;;;;2.28;1.40;;;19.00;58.70;;;;;;5009419;28;20263;-58
2022/05/07 10:52:36;;;;;;;2.78;1.40;;;19.00;58.70;;;;;;5009192;28;20193;-57
2022/05/07 10:55:12;;;;;;;2.35;1.40;;;19.00;58.70;;;;;;5007333;28;20205;-57
2022/05/07 10:57:47;;;;;;;1.63;1.30;;;19.00;58.60;;;;;;5009047;28;20208;-58
2022/05/07 11:00:19;;;;;;;1.52;1.40;;;19.00;58.70;;;;;;5009178;28;20558;-56
2022/05/07 11:02:50;;;;;;;2.28;1.40;;;18.90;58.60;;;;;;5008667;28;20231;-57
2022/05/07 11:05:30;;;;;;;1.80;1.50;;;19.00;58.60;;;;;;5007952;28;20243;-57
2022/05/07 11:08:04;;;;;;;2.10;1.65;;;19.00;58.60;;;;;;5007862;28;20213;-57
2022/05/07 11:10:35;;;;;;;3.50;1.75;;;18.90;58.60;;;;;;5008339;28;20220;-57
2022/05/07 11:13:09;;;;;;;1.70;1.60;;;18.90;58.60;;;;;;5006861;28;20594;-57
2022/05/07 11:15:39;;;;;;;2.53;1.55;;;18.90;58.50;;;;;;5008435;28;20622;-57
2022/05/07 11:18:19;;;;;;;1.77;1.40;;;18.90;58.50;;;;;;5007869;28;20294;-57
2022/05/07 11:20:50;;;;;;;1.58;1.48;;;18.90;58.60;;;;;;5005522;28;20286;-57
2022/05/07 11:23:23;;;;;;;2.90;1.75;;;18.90;58.50;;;;;;5006205;28;20197;-57
2022/05/07 11:25:53;;;;;;;2.33;1.50;;;18.90;58.50;;;;;;5006217;28;20201;-57
2022/05/07 11:28:24;;;;;;;1.40;1.30;;;18.90;58.50;;;;;;5005815;28;20282;-57
2022/05/07 11:30:57;;;;;;;1.73;1.45;;;18.90;58.50;;;;;;5003308;28;20623;-57
2022/05/07 11:33:28;;;;;;;4.07;1.65;;;18.90;58.40;;;;;;5000344;28;20776;-57
2022/05/07 11:36:08;;;;;;;1.40;1.30;;;18.90;58.40;;;;;;5008124;28;20633;-56
2022/05/07 11:38:40;;;;;;;2.05;1.70;;;18.90;58.40;;;;;;5008448;28;20731;-56
2022/05/07 11:41:16;;;;;;;1.42;1.20;;;18.90;58.30;;;;;;5008044;28;20263;-57
2022/05/07 11:46:49;;;;;;;2.15;1.60;;;18.90;58.20;;;;;;5004223;28;20212;-57
2022/05/07 11:49:33;;;;;;;1.42;1.30;;;18.90;58.20;;;;;;4999790;28;20224;-57
2022/05/07 11:52:11;;;;;;;3.08;1.60;;;18.90;58.20;;;;;;4999437;28;20208;-56
2022/05/07 11:54:54;;;;;;;2.97;1.50;;;18.80;58.10;;;;;;5007027;28;20200;-57
2022/05/07 11:57:32;;;;;;;2.42;1.92;;;18.80;58.20;;;;;;4995664;28;20268;-57
2022/05/07 12:00:16;;;;;;;3.00;1.45;;;18.90;58.20;;;;;;5007265;28;20258;-56
2022/05/07 12:02:57;;;;;;;2.05;1.42;;;18.90;58.30;;;;;;5003886;28;20676;-56
2022/05/07 12:05:29;;;;;;;3.22;1.35;;;18.90;58.20;;;;;;5005221;28;20286;-57
2022/05/07 12:07:59;;;;;;;2.55;1.67;;;18.80;58.20;;;;;;5008076;28;20749;-56
2022/05/07 12:10:32;;;;;;;1.30;1.20;;;18.80;58.20;;;;;;5009497;28;20228;-57
2022/05/07 12:13:02;;;;;;;2.47;1.55;;;18.80;58.20;;;;;;5012040;28;20196;-57
2022/05/07 12:18:19;;;;;;;2.05;1.52;;;18.80;58.20;;;;;;5012290;28;20834;-57
2022/05/07 12:20:50;;;;;;;1.85;1.38;;;18.80;58.20;;;;;;5011416;28;20199;-57
2022/05/07 12:31:42;;;;;;;2.20;1.50;;;18.80;58.10;;;;;;5011887;28;20205;-56
2022/05/07 12:34:13;;;;;;;1.30;1.20;;;18.80;58.10;;;;;;5011003;28;20228;-56
2022/05/07 12:36:43;;;;;;;1.38;1.27;;;18.80;58.10;;;;;;5002502;28;20257;-60
2022/05/07 12:39:14;;;;;;;2.15;1.50;;;18.80;58.10;;;;;;4994766;28;20213;-57
2022/05/07 12:41:46;;;;;;;2.25;1.50;;;18.80;58.10;;;;;;4993986;28;20212;-58
2022/05/07 12:44:17;;;;;;;2.00;1.40;;;18.80;58.20;;;;;;4993737;28;20197;-58
2022/05/07 12:46:47;;;;;;;2.28;1.45;;;18.80;58.10;;;;;;4992924;28;20197;-58
2022/05/07 12:49:18;;;;;;;1.88;1.48;;;18.80;58.20;;;;;;4993638;28;20759;-59
2022/05/07 12:51:48;;;;;;;2.78;1.67;;;18.80;58.10;;;;;;4993091;28;20225;-58
2022/05/07 12:54:19;;;;;;;2.40;1.42;;;18.80;58.20;;;;;;4992287;28;20201;-58
2022/05/07 12:56:52;;;;;;;1.73;1.40;;;18.80;58.20;;;;;;4992636;28;20229;-58
2022/05/07 12:59:22;;;;;;;1.30;1.20;;;18.80;58.10;;;;;;4993114;28;20218;-58
2022/05/07 13:01:53;;;;;;;1.40;1.20;;;18.70;58.10;;;;;;4993008;28;20197;-58
2022/05/07 13:04:24;;;;;;;2.30;1.38;;;18.70;58.00;;;;;;4993195;28;20252;-58
2022/05/07 13:06:54;;;;;;;1.50;1.27;;;18.70;58.00;;;;;;4991935;28;20194;-58
2022/05/07 13:09:25;;;;;;;1.48;1.20;;;18.70;58.00;;;;;;4992477;28;20708;-58
2022/05/07 13:11:58;;;;;;;1.33;1.08;;;18.70;58.10;;;;;;4992725;28;20776;-58
2022/05/07 13:14:30;;;;;;;2.13;1.30;;;18.70;58.10;;;;;;4992806;28;20204;-58
2022/05/07 13:17:00;;;;;;;1.70;1.40;;;18.70;58.00;;;;;;4991851;28;20240;-57
2022/05/07 13:19:32;;;;;;;3.53;1.30;;;18.70;58.60;;;;;;4991542;28;20310;-58
2022/05/07 13:22:02;;;;;;;1.58;1.25;;;18.70;58.00;;;;;;4992228;28;20200;-58
2022/05/07 13:24:33;;;;;;;2.38;1.27;;;18.70;58.00;;;;;;4992822;28;20264;-58
2022/05/07 13:27:06;;;;;;;2.10;1.30;;;18.70;58.00;;;;;;4992496;28;20283;-58
2022/05/07 13:29:36;;;;;;;1.90;1.42;;;18.70;58.00;;;;;;4991957;28;20240;-58
2022/05/07 13:32:08;;;;;;;1.50;1.20;;;18.70;58.00;;;;;;4992498;28;20658;-58
2022/05/07 13:34:38;;;;;;;1.75;1.30;;;18.70;58.00;;;;;;4992491;28;20251;-58
2022/05/07 13:37:10;;;;;;;2.30;1.30;;;18.60;58.00;;;;;;4991867;28;20399;-58
2022/05/07 13:39:41;;;;;;;1.55;1.20;;;18.70;58.00;;;;;;4992048;28;20228;-57
2022/05/07 13:42:14;;;;;;;2.13;1.55;;;18.60;58.00;;;;;;4991920;28;20232;-57
2022/05/07 13:44:44;;;;;;;1.50;1.20;;;18.60;58.00;;;;;;4991915;28;20198;-58
2022/05/07 13:47:15;;;;;;;1.40;1.30;;;18.60;58.00;;;;;;4992675;28;20198;-57
2022/05/07 13:49:46;;;;;;;1.42;1.33;;;18.60;57.90;;;;;;4992182;28;20260;-58
2022/05/07 13:52:16;;;;;;;1.33;1.20;;;18.60;58.00;;;;;;4991832;28;20202;-58
2022/05/07 13:54:47;;;;;;;1.30;1.20;;;18.60;57.90;;;;;;4991600;28;20724;-58
2022/05/07 13:57:19;;;;;;;1.70;1.17;;;18.60;57.90;;;;;;4991310;28;20292;-58
2022/05/07 13:59:50;;;;;;;1.15;1.00;;;18.60;57.90;;;;;;4991825;28;20202;-58
2022/05/07 14:02:20;;;;;;;1.50;1.30;;;18.60;57.90;;;;;;4991686;28;20198;-57